sensor_id;sensor_type;location;lat;lon;timestamp;pressure;altitude;pressure_sealevel;temperature
15144;BMP180;7672;50.834;6.286;2023-07-29T00:01:41;98920.63;;;22.55
15144;BMP180;7672;50.834;6.286;2023-07-29T00:04:09;98930.97;;;22.54
15144;BMP180;7672;50.834;6.286;2023-07-29T00:06:36;98923.25;;;22.54
15144;BMP180;7672;50.834;6.286;2023-07-29T00:09:04;98919.84;;;22.53
15144;BMP180;7672;50.834;6.286;2023-07-29T00:11:31;98920.66;;;22.54
15144;BMP180;7672;50.834;6.286;2023-07-29T00:14:02;98916.38;;;22.54
15144;BMP180;7672;50.834;6.286;2023-07-29T00:16:29;98916.38;;;22.54
15144;BMP180;7672;50.834;6.286;2023-07-29T00:18:56;98911.22;;;22.54
15144;BMP180;7672;50.834;6.286;2023-07-29T00:21:23;98915.47;;;22.55
15144;BMP180;7672;50.834;6.286;2023-07-29T00:23:50;98911.94;;;22.56
15144;BMP180;7672;50.834;6.286;2023-07-29T00:26:17;98917.94;;;22.57
15144;BMP180;7672;50.834;6.286;2023-07-29T00:28:44;98909.38;;;22.56
15144;BMP180;7672;50.834;6.286;2023-07-29T00:31:11;98911.13;;;22.56
15144;BMP180;7672;50.834;6.286;2023-07-29T00:33:39;98911.94;;;22.56
15144;BMP180;7672;50.834;6.286;2023-07-29T00:36:06;98912.72;;;22.58
15144;BMP180;7672;50.834;6.286;2023-07-29T00:38:33;98903.13;;;22.60
15144;BMP180;7672;50.834;6.286;2023-07-29T00:41:02;98904.78;;;22.61
15144;BMP180;7672;50.834;6.286;2023-07-29T00:43:29;98912.44;;;22.63
15144;BMP180;7672;50.834;6.286;2023-07-29T00:45:57;98909.78;;;22.64
15144;BMP180;7672;50.834;6.286;2023-07-29T00:48:26;98908.13;;;22.63
15144;BMP180;7672;50.834;6.286;2023-07-29T00:50:55;98913.38;;;22.62
15144;BMP180;7672;50.834;6.286;2023-07-29T00:53:22;98923.81;;;22.59
15144;BMP180;7672;50.834;6.286;2023-07-29T00:55:49;98909.56;;;22.53
15144;BMP180;7672;50.834;6.286;2023-07-29T00:58:17;98893.53;;;22.48
15144;BMP180;7672;50.834;6.286;2023-07-29T01:00:44;98887.63;;;22.46
15144;BMP180;7672;50.834;6.286;2023-07-29T01:03:12;98904.84;;;22.46
15144;BMP180;7672;50.834;6.286;2023-07-29T01:08:38;98906.09;;;22.39
15144;BMP180;7672;50.834;6.286;2023-07-29T01:14:34;98901.19;;;22.35
15144;BMP180;7672;50.834;6.286;2023-07-29T01:17:09;98897.81;;;22.34
15144;BMP180;7672;50.834;6.286;2023-07-29T01:20:09;98901.09;;;22.36
15144;BMP180;7672;50.834;6.286;2023-07-29T01:22:38;98900.19;;;22.37
15144;BMP180;7672;50.834;6.286;2023-07-29T01:25:07;98890.72;;;22.38
15144;BMP180;7672;50.834;6.286;2023-07-29T01:27:34;98894.06;;;22.39
15144;BMP180;7672;50.834;6.286;2023-07-29T01:30:03;98898.38;;;22.39
15144;BMP180;7672;50.834;6.286;2023-07-29T01:32:45;98902.59;;;22.40
15144;BMP180;7672;50.834;6.286;2023-07-29T01:35:37;98894.81;;;22.41
15144;BMP180;7672;50.834;6.286;2023-07-29T01:38:19;98903.53;;;22.39
15144;BMP180;7672;50.834;6.286;2023-07-29T01:40:50;98895.81;;;22.39
15144;BMP180;7672;50.834;6.286;2023-07-29T01:43:18;98909.41;;;22.41
15144;BMP180;7672;50.834;6.286;2023-07-29T01:45:52;98906.91;;;22.39
15144;BMP180;7672;50.834;6.286;2023-07-29T01:48:19;98908.41;;;22.43
15144;BMP180;7672;50.834;6.286;2023-07-29T01:50:48;98908.50;;;22.42
15144;BMP180;7672;50.834;6.286;2023-07-29T01:53:15;98905.00;;;22.43
15144;BMP180;7672;50.834;6.286;2023-07-29T01:55:44;98908.50;;;22.42
15144;BMP180;7672;50.834;6.286;2023-07-29T01:58:12;98904.25;;;22.41
15144;BMP180;7672;50.834;6.286;2023-07-29T02:00:40;98900.09;;;22.38
15144;BMP180;7672;50.834;6.286;2023-07-29T02:03:07;98894.97;;;22.38
15144;BMP180;7672;50.834;6.286;2023-07-29T02:05:34;98891.66;;;22.37
15144;BMP180;7672;50.834;6.286;2023-07-29T02:08:01;98885.66;;;22.36
15144;BMP180;7672;50.834;6.286;2023-07-29T02:10:28;98882.25;;;22.36
15144;BMP180;7672;50.834;6.286;2023-07-29T02:12:56;98895.97;;;22.36
15144;BMP180;7672;50.834;6.286;2023-07-29T02:15:23;98892.66;;;22.34
15144;BMP180;7672;50.834;6.286;2023-07-29T02:17:50;98897.88;;;22.33
15144;BMP180;7672;50.834;6.286;2023-07-29T02:20:19;98909.91;;;22.32
15144;BMP180;7672;50.834;6.286;2023-07-29T02:22:46;98905.59;;;22.33
15144;BMP180;7672;50.834;6.286;2023-07-29T02:25:14;98903.22;;;22.88
15144;BMP180;7672;50.834;6.286;2023-07-29T02:27:41;98900.06;;;22.69
15144;BMP180;7672;50.834;6.286;2023-07-29T02:30:09;98893.09;;;22.56
15144;BMP180;7672;50.834;6.286;2023-07-29T02:32:36;98881.66;;;22.46
15144;BMP180;7672;50.834;6.286;2023-07-29T02:35:04;98876.78;;;22.41
15144;BMP180;7672;50.834;6.286;2023-07-29T02:37:32;98896.81;;;22.37
15144;BMP180;7672;50.834;6.286;2023-07-29T02:39:59;98895.22;;;22.34
15144;BMP180;7672;50.834;6.286;2023-07-29T02:42:27;98886.84;;;22.31
15144;BMP180;7672;50.834;6.286;2023-07-29T02:44:54;98885.16;;;22.30
15144;BMP180;7672;50.834;6.286;2023-07-29T02:47:21;98881.09;;;22.26
15144;BMP180;7672;50.834;6.286;2023-07-29T02:49:48;98886.41;;;22.23
15144;BMP180;7672;50.834;6.286;2023-07-29T02:52:15;98884.84;;;22.20
15144;BMP180;7672;50.834;6.286;2023-07-29T02:54:42;98872.88;;;22.19
15144;BMP180;7672;50.834;6.286;2023-07-29T02:57:09;98866.16;;;22.17
15144;BMP180;7672;50.834;6.286;2023-07-29T02:59:36;98865.25;;;22.18
15144;BMP180;7672;50.834;6.286;2023-07-29T03:02:03;98861.25;;;22.12
15144;BMP180;7672;50.834;6.286;2023-07-29T03:04:30;98875.09;;;22.10
15144;BMP180;7672;50.834;6.286;2023-07-29T03:07:00;98877.84;;;22.07
15144;BMP180;7672;50.834;6.286;2023-07-29T03:09:28;98877.19;;;22.03
15144;BMP180;7672;50.834;6.286;2023-07-29T03:11:55;98882.50;;;22.00
15144;BMP180;7672;50.834;6.286;2023-07-29T03:14:22;98876.69;;;21.97
15144;BMP180;7672;50.834;6.286;2023-07-29T03:16:49;98882.84;;;21.94
15144;BMP180;7672;50.834;6.286;2023-07-29T03:19:16;98876.19;;;21.90
15144;BMP180;7672;50.834;6.286;2023-07-29T03:21:44;98868.66;;;21.87
15144;BMP180;7672;50.834;6.286;2023-07-29T03:24:11;98868.81;;;21.84
15144;BMP180;7672;50.834;6.286;2023-07-29T03:26:38;98870.78;;;21.79
15144;BMP180;7672;50.834;6.286;2023-07-29T03:29:05;98860.59;;;21.78
15144;BMP180;7672;50.834;6.286;2023-07-29T03:31:32;98872.63;;;21.77
15144;BMP180;7672;50.834;6.286;2023-07-29T03:33:59;98878.84;;;21.74
15144;BMP180;7672;50.834;6.286;2023-07-29T03:36:27;98877.34;;;21.70
15144;BMP180;7672;50.834;6.286;2023-07-29T03:38:54;98874.19;;;21.65
15144;BMP180;7672;50.834;6.286;2023-07-29T03:41:21;98886.28;;;21.63
15144;BMP180;7672;50.834;6.286;2023-07-29T03:43:48;98877.84;;;21.61
15144;BMP180;7672;50.834;6.286;2023-07-29T03:46:15;98896.66;;;21.61
15144;BMP180;7672;50.834;6.286;2023-07-29T03:48:47;98882.31;;;21.57
15144;BMP180;7672;50.834;6.286;2023-07-29T03:51:14;98888.44;;;21.55
15144;BMP180;7672;50.834;6.286;2023-07-29T03:53:41;98887.69;;;21.53
15144;BMP180;7672;50.834;6.286;2023-07-29T03:56:08;98884.38;;;21.51
15144;BMP180;7672;50.834;6.286;2023-07-29T03:58:35;98890.47;;;21.48
15144;BMP180;7672;50.834;6.286;2023-07-29T04:01:03;98898.28;;;21.47
15144;BMP180;7672;50.834;6.286;2023-07-29T04:03:33;98893.19;;;21.45
15144;BMP180;7672;50.834;6.286;2023-07-29T04:06:01;98900.16;;;21.43
15144;BMP180;7672;50.834;6.286;2023-07-29T04:08:28;98904.47;;;21.43
15144;BMP180;7672;50.834;6.286;2023-07-29T04:10:55;98901.97;;;21.41
15144;BMP180;7672;50.834;6.286;2023-07-29T04:13:22;98899.56;;;21.38
15144;BMP180;7672;50.834;6.286;2023-07-29T04:15:49;98900.47;;;21.37
15144;BMP180;7672;50.834;6.286;2023-07-29T04:18:17;98907.44;;;21.35
15144;BMP180;7672;50.834;6.286;2023-07-29T04:20:45;98905.78;;;21.34
15144;BMP180;7672;50.834;6.286;2023-07-29T04:23:12;98900.72;;;21.33
15144;BMP180;7672;50.834;6.286;2023-07-29T04:25:39;98897.16;;;21.35
15144;BMP180;7672;50.834;6.286;2023-07-29T04:28:06;98896.22;;;21.36
15144;BMP180;7672;50.834;6.286;2023-07-29T04:30:33;98896.19;;;21.38
15144;BMP180;7672;50.834;6.286;2023-07-29T04:33:00;98897.72;;;21.40
15144;BMP180;7672;50.834;6.286;2023-07-29T04:35:27;98890.88;;;21.41
15144;BMP180;7672;50.834;6.286;2023-07-29T04:37:54;98894.25;;;21.41
15144;BMP180;7672;50.834;6.286;2023-07-29T04:40:21;98893.34;;;21.42
15144;BMP180;7672;50.834;6.286;2023-07-29T04:42:51;98903.56;;;21.44
15144;BMP180;7672;50.834;6.286;2023-07-29T04:45:18;98898.31;;;21.45
15144;BMP180;7672;50.834;6.286;2023-07-29T04:47:45;98902.56;;;21.46
15144;BMP180;7672;50.834;6.286;2023-07-29T04:50:12;98901.66;;;21.47
15144;BMP180;7672;50.834;6.286;2023-07-29T04:52:39;98899.81;;;21.51
15144;BMP180;7672;50.834;6.286;2023-07-29T04:55:07;98907.53;;;21.51
15144;BMP180;7672;50.834;6.286;2023-07-29T04:57:34;98910.81;;;21.53
15144;BMP180;7672;50.834;6.286;2023-07-29T05:00:03;98904.69;;;21.55
15144;BMP180;7672;50.834;6.286;2023-07-29T05:02:30;98903.88;;;21.55
15144;BMP180;7672;50.834;6.286;2023-07-29T05:04:57;98903.88;;;21.55
15144;BMP180;7672;50.834;6.286;2023-07-29T05:07:31;98908.94;;;21.56
15144;BMP180;7672;50.834;6.286;2023-07-29T05:09:58;98896.84;;;21.58
15144;BMP180;7672;50.834;6.286;2023-07-29T05:12:26;98910.44;;;21.60
15144;BMP180;7672;50.834;6.286;2023-07-29T05:14:53;98921.56;;;21.61
15144;BMP180;7672;50.834;6.286;2023-07-29T05:17:21;98905.19;;;21.62
15144;BMP180;7672;50.834;6.286;2023-07-29T05:19:48;98925.72;;;21.63
15144;BMP180;7672;50.834;6.286;2023-07-29T05:22:15;98926.44;;;21.65
15144;BMP180;7672;50.834;6.286;2023-07-29T05:24:42;98940.13;;;21.66
15144;BMP180;7672;50.834;6.286;2023-07-29T05:27:10;98929.78;;;21.67
15144;BMP180;7672;50.834;6.286;2023-07-29T05:29:37;98939.09;;;21.70
15144;BMP180;7672;50.834;6.286;2023-07-29T05:32:04;98943.25;;;21.72
15144;BMP180;7672;50.834;6.286;2023-07-29T05:34:32;98937.09;;;21.75
15144;BMP180;7672;50.834;6.286;2023-07-29T05:36:59;98949.03;;;21.75
15144;BMP180;7672;50.834;6.286;2023-07-29T05:39:26;98946.31;;;21.78
15144;BMP180;7672;50.834;6.286;2023-07-29T05:41:53;98933.38;;;21.80
15144;BMP180;7672;50.834;6.286;2023-07-29T05:44:20;98942.66;;;21.82
15144;BMP180;7672;50.834;6.286;2023-07-29T05:46:47;98947.56;;;21.87
15144;BMP180;7672;50.834;6.286;2023-07-29T05:49:14;98959.38;;;21.91
15144;BMP180;7672;50.834;6.286;2023-07-29T05:51:42;98957.44;;;21.94
15144;BMP180;7672;50.834;6.286;2023-07-29T05:54:09;98971.66;;;22.01
15144;BMP180;7672;50.834;6.286;2023-07-29T05:56:36;98966.25;;;22.06
15144;BMP180;7672;50.834;6.286;2023-07-29T05:59:03;98961.69;;;22.11
15144;BMP180;7672;50.834;6.286;2023-07-29T06:01:30;98969.91;;;22.17
15144;BMP180;7672;50.834;6.286;2023-07-29T06:03:57;98964.34;;;22.25
15144;BMP180;7672;50.834;6.286;2023-07-29T06:06:25;98965.72;;;22.32
15144;BMP180;7672;50.834;6.286;2023-07-29T06:08:52;98967.03;;;22.38
15144;BMP180;7672;50.834;6.286;2023-07-29T06:11:19;98970.03;;;22.46
15144;BMP180;7672;50.834;6.286;2023-07-29T06:13:47;98971.34;;;22.53
15144;BMP180;7672;50.834;6.286;2023-07-29T06:16:14;98974.44;;;22.60
15144;BMP180;7672;50.834;6.286;2023-07-29T06:18:42;98981.56;;;22.70
15144;BMP180;7672;50.834;6.286;2023-07-29T06:21:09;98980.88;;;22.82
15144;BMP180;7672;50.834;6.286;2023-07-29T06:23:39;98988.75;;;22.95
15144;BMP180;7672;50.834;6.286;2023-07-29T06:26:06;98980.34;;;23.06
15144;BMP180;7672;50.834;6.286;2023-07-29T06:28:33;98975.31;;;23.19
15144;BMP180;7672;50.834;6.286;2023-07-29T06:31:01;98989.25;;;23.30
15144;BMP180;7672;50.834;6.286;2023-07-29T06:33:28;98983.56;;;23.39
15144;BMP180;7672;50.834;6.286;2023-07-29T06:35:55;98981.34;;;23.47
15144;BMP180;7672;50.834;6.286;2023-07-29T06:38:22;98984.25;;;23.57
15144;BMP180;7672;50.834;6.286;2023-07-29T06:40:49;98970.97;;;23.63
15144;BMP180;7672;50.834;6.286;2023-07-29T06:43:17;98959.41;;;23.69
15144;BMP180;7672;50.834;6.286;2023-07-29T06:45:44;98961.53;;;23.77
15144;BMP180;7672;50.834;6.286;2023-07-29T06:48:11;98954.88;;;23.87
15144;BMP180;7672;50.834;6.286;2023-07-29T06:50:38;98962.88;;;23.96
15144;BMP180;7672;50.834;6.286;2023-07-29T06:53:06;98975.13;;;24.07
15144;BMP180;7672;50.834;6.286;2023-07-29T06:55:33;98970.25;;;24.16
15144;BMP180;7672;50.834;6.286;2023-07-29T06:58:00;98979.16;;;24.25
15144;BMP180;7672;50.834;6.286;2023-07-29T07:00:27;98975.09;;;24.34
15144;BMP180;7672;50.834;6.286;2023-07-29T07:02:54;98982.22;;;24.45
15144;BMP180;7672;50.834;6.286;2023-07-29T07:05:21;98980.78;;;24.53
15144;BMP180;7672;50.834;6.286;2023-07-29T07:07:48;98989.72;;;24.62
15144;BMP180;7672;50.834;6.286;2023-07-29T07:10:15;98996.59;;;24.75
15144;BMP180;7672;50.834;6.286;2023-07-29T07:12:42;98995.16;;;24.84
15144;BMP180;7672;50.834;6.286;2023-07-29T07:15:10;98986.00;;;24.92
15144;BMP180;7672;50.834;6.286;2023-07-29T07:17:37;98989.47;;;25.05
15144;BMP180;7672;50.834;6.286;2023-07-29T07:20:05;98979.06;;;25.19
15144;BMP180;7672;50.834;6.286;2023-07-29T07:22:32;98977.13;;;25.35
15144;BMP180;7672;50.834;6.286;2023-07-29T07:24:59;98980.34;;;25.51
15144;BMP180;7672;50.834;6.286;2023-07-29T07:27:26;98980.88;;;25.68
15144;BMP180;7672;50.834;6.286;2023-07-29T07:29:53;98987.31;;;25.87
15144;BMP180;7672;50.834;6.286;2023-07-29T07:32:20;98977.31;;;26.18
15144;BMP180;7672;50.834;6.286;2023-07-29T07:34:47;98977.34;;;26.54
15144;BMP180;7672;50.834;6.286;2023-07-29T07:37:14;98991.78;;;26.92
15144;BMP180;7672;50.834;6.286;2023-07-29T07:39:41;98987.03;;;27.44
15144;BMP180;7672;50.834;6.286;2023-07-29T07:42:08;98994.69;;;28.02
15144;BMP180;7672;50.834;6.286;2023-07-29T07:44:35;98987.69;;;28.46
15144;BMP180;7672;50.834;6.286;2023-07-29T07:47:03;99002.66;;;28.75
15144;BMP180;7672;50.834;6.286;2023-07-29T07:49:31;98995.03;;;28.94
15144;BMP180;7672;50.834;6.286;2023-07-29T07:51:59;99000.91;;;29.27
15144;BMP180;7672;50.834;6.286;2023-07-29T07:54:26;98992.13;;;29.59
15144;BMP180;7672;50.834;6.286;2023-07-29T07:56:53;98984.72;;;29.85
15144;BMP180;7672;50.834;6.286;2023-07-29T07:59:20;98985.84;;;30.21
15144;BMP180;7672;50.834;6.286;2023-07-29T08:01:47;98985.41;;;30.56
15144;BMP180;7672;50.834;6.286;2023-07-29T08:04:14;98988.56;;;30.78
15144;BMP180;7672;50.834;6.286;2023-07-29T08:06:41;98992.88;;;30.98
15144;BMP180;7672;50.834;6.286;2023-07-29T08:09:08;98992.47;;;31.12
15144;BMP180;7672;50.834;6.286;2023-07-29T08:11:35;98983.69;;;31.13
15144;BMP180;7672;50.834;6.286;2023-07-29T08:14:02;98986.97;;;31.05
15144;BMP180;7672;50.834;6.286;2023-07-29T08:16:30;98985.44;;;30.93
15144;BMP180;7672;50.834;6.286;2023-07-29T08:18:57;98992.69;;;30.80
15144;BMP180;7672;50.834;6.286;2023-07-29T08:21:24;98992.44;;;30.65
15144;BMP180;7672;50.834;6.286;2023-07-29T08:23:51;98991.00;;;30.51
15144;BMP180;7672;50.834;6.286;2023-07-29T08:26:18;98992.66;;;30.43
15144;BMP180;7672;50.834;6.286;2023-07-29T08:28:45;98985.47;;;30.35
15144;BMP180;7672;50.834;6.286;2023-07-29T08:31:12;98993.13;;;30.27
15144;BMP180;7672;50.834;6.286;2023-07-29T08:33:39;98999.97;;;30.19
15144;BMP180;7672;50.834;6.286;2023-07-29T08:36:06;98994.69;;;30.09
15144;BMP180;7672;50.834;6.286;2023-07-29T08:38:33;99005.78;;;30.02
15144;BMP180;7672;50.834;6.286;2023-07-29T08:41:26;98996.41;;;29.90
15144;BMP180;7672;50.834;6.286;2023-07-29T08:44:10;98987.56;;;29.82
15144;BMP180;7672;50.834;6.286;2023-07-29T08:46:39;99001.16;;;29.85
15144;BMP180;7672;50.834;6.286;2023-07-29T08:49:08;99004.84;;;29.83
15144;BMP180;7672;50.834;6.286;2023-07-29T08:51:36;99003.66;;;29.87
15144;BMP180;7672;50.834;6.286;2023-07-29T08:54:03;99005.31;;;29.88
15144;BMP180;7672;50.834;6.286;2023-07-29T08:56:31;99002.34;;;29.92
15144;BMP180;7672;50.834;6.286;2023-07-29T08:58:58;98997.97;;;30.02
15144;BMP180;7672;50.834;6.286;2023-07-29T09:01:27;98995.28;;;30.13
15144;BMP180;7672;50.834;6.286;2023-07-29T09:03:55;98994.88;;;30.57
15144;BMP180;7672;50.834;6.286;2023-07-29T09:06:23;98999.88;;;31.26
15144;BMP180;7672;50.834;6.286;2023-07-29T09:08:54;99007.84;;;31.62
15144;BMP180;7672;50.834;6.286;2023-07-29T09:11:23;98998.00;;;31.83
15144;BMP180;7672;50.834;6.286;2023-07-29T09:13:51;99008.19;;;32.22
15144;BMP180;7672;50.834;6.286;2023-07-29T09:16:22;98993.09;;;32.43
15144;BMP180;7672;50.834;6.286;2023-07-29T09:18:51;99001.75;;;32.43
15144;BMP180;7672;50.834;6.286;2023-07-29T09:21:24;99007.94;;;32.25
15144;BMP180;7672;50.834;6.286;2023-07-29T09:23:56;99015.56;;;31.99
15144;BMP180;7672;50.834;6.286;2023-07-29T09:26:27;99014.84;;;31.71
15144;BMP180;7672;50.834;6.286;2023-07-29T09:28:56;99015.56;;;31.35
15144;BMP180;7672;50.834;6.286;2023-07-29T09:31:26;99013.63;;;30.99
15144;BMP180;7672;50.834;6.286;2023-07-29T09:34:00;99010.69;;;30.65
15144;BMP180;7672;50.834;6.286;2023-07-29T09:36:30;99018.66;;;30.33
15144;BMP180;7672;50.834;6.286;2023-07-29T09:38:58;99024.03;;;30.02
15144;BMP180;7672;50.834;6.286;2023-07-29T09:41:27;99027.66;;;29.70
15144;BMP180;7672;50.834;6.286;2023-07-29T09:44:00;99021.72;;;29.38
15144;BMP180;7672;50.834;6.286;2023-07-29T09:46:38;99037.19;;;29.08
15144;BMP180;7672;50.834;6.286;2023-07-29T09:49:07;99032.19;;;28.85
15144;BMP180;7672;50.834;6.286;2023-07-29T09:51:39;99030.06;;;28.68
15144;BMP180;7672;50.834;6.286;2023-07-29T09:54:07;99034.69;;;28.65
15144;BMP180;7672;50.834;6.286;2023-07-29T09:56:41;99037.50;;;28.62
15144;BMP180;7672;50.834;6.286;2023-07-29T09:59:10;99030.81;;;28.48
15144;BMP180;7672;50.834;6.286;2023-07-29T10:01:39;99049.47;;;28.31
15144;BMP180;7672;50.834;6.286;2023-07-29T10:04:08;99046.63;;;28.12
15144;BMP180;7672;50.834;6.286;2023-07-29T10:06:41;99061.75;;;27.97
15144;BMP180;7672;50.834;6.286;2023-07-29T10:09:11;99049.22;;;27.80
15144;BMP180;7672;50.834;6.286;2023-07-29T10:11:40;99042.69;;;27.63
15144;BMP180;7672;50.834;6.286;2023-07-29T10:14:08;99038.72;;;27.47
15144;BMP180;7672;50.834;6.286;2023-07-29T10:16:40;99035.84;;;27.39
15144;BMP180;7672;50.834;6.286;2023-07-29T10:19:10;99035.06;;;27.49
15144;BMP180;7672;50.834;6.286;2023-07-29T10:21:39;99029.22;;;27.69
15144;BMP180;7672;50.834;6.286;2023-07-29T10:24:15;99036.84;;;28.16
15144;BMP180;7672;50.834;6.286;2023-07-29T10:26:46;99022.97;;;28.70
15144;BMP180;7672;50.834;6.286;2023-07-29T10:29:19;99021.72;;;29.27
15144;BMP180;7672;50.834;6.286;2023-07-29T10:31:47;99013.13;;;29.88
15144;BMP180;7672;50.834;6.286;2023-07-29T10:34:15;99012.09;;;30.39
15144;BMP180;7672;50.834;6.286;2023-07-29T10:36:44;99024.03;;;30.90
15144;BMP180;7672;50.834;6.286;2023-07-29T10:39:12;99020.91;;;31.15
15144;BMP180;7672;50.834;6.286;2023-07-29T10:42:05;99015.69;;;31.24
15144;BMP180;7672;50.834;6.286;2023-07-29T10:47:16;99016.38;;;31.35
15144;BMP180;7672;50.834;6.286;2023-07-29T10:49:45;99011.41;;;31.42
15144;BMP180;7672;50.834;6.286;2023-07-29T10:55:03;99008.78;;;32.43
15144;BMP180;7672;50.834;6.286;2023-07-29T10:57:49;99013.22;;;33.56
15144;BMP180;7672;50.834;6.286;2023-07-29T11:00:16;99002.72;;;34.48
15144;BMP180;7672;50.834;6.286;2023-07-29T11:03:02;99002.75;;;35.28
15144;BMP180;7672;50.834;6.286;2023-07-29T11:05:53;99013.94;;;36.24
15144;BMP180;7672;50.834;6.286;2023-07-29T11:08:30;99002.66;;;37.07
15144;BMP180;7672;50.834;6.286;2023-07-29T11:11:07;99005.84;;;37.75
15144;BMP180;7672;50.834;6.286;2023-07-29T11:13:37;98997.31;;;38.31
15144;BMP180;7672;50.834;6.286;2023-07-29T11:16:05;98989.19;;;38.61
15144;BMP180;7672;50.834;6.286;2023-07-29T11:18:35;99006.28;;;39.01
15144;BMP180;7672;50.834;6.286;2023-07-29T11:21:03;98998.78;;;39.46
15144;BMP180;7672;50.834;6.286;2023-07-29T11:23:36;98999.75;;;39.93
15144;BMP180;7672;50.834;6.286;2023-07-29T11:26:04;99000.25;;;40.16
15144;BMP180;7672;50.834;6.286;2023-07-29T11:28:38;99003.25;;;40.34
15144;BMP180;7672;50.834;6.286;2023-07-29T11:31:06;98998.44;;;40.16
15144;BMP180;7672;50.834;6.286;2023-07-29T11:33:33;98987.81;;;40.03
15144;BMP180;7672;50.834;6.286;2023-07-29T11:36:00;98986.06;;;40.23
15144;BMP180;7672;50.834;6.286;2023-07-29T11:38:27;98998.34;;;40.31
15144;BMP180;7672;50.834;6.286;2023-07-29T11:41:01;98992.22;;;40.30
15144;BMP180;7672;50.834;6.286;2023-07-29T11:43:36;98991.25;;;40.04
15144;BMP180;7672;50.834;6.286;2023-07-29T11:46:03;98992.19;;;39.63
15144;BMP180;7672;50.834;6.286;2023-07-29T11:48:33;98990.47;;;39.28
15144;BMP180;7672;50.834;6.286;2023-07-29T11:51:02;98987.69;;;38.94
15144;BMP180;7672;50.834;6.286;2023-07-29T11:53:30;98985.34;;;38.64
15144;BMP180;7672;50.834;6.286;2023-07-29T11:55:58;98977.22;;;38.30
15144;BMP180;7672;50.834;6.286;2023-07-29T11:58:26;98973.22;;;38.05
15144;BMP180;7672;50.834;6.286;2023-07-29T12:00:53;98972.78;;;37.87
15144;BMP180;7672;50.834;6.286;2023-07-29T12:03:22;98968.13;;;37.75
15144;BMP180;7672;50.834;6.286;2023-07-29T12:05:49;98967.44;;;37.59
15144;BMP180;7672;50.834;6.286;2023-07-29T12:08:17;98965.25;;;37.48
15144;BMP180;7672;50.834;6.286;2023-07-29T12:10:44;98951.69;;;37.36
15144;BMP180;7672;50.834;6.286;2023-07-29T12:13:12;98946.50;;;37.28
15144;BMP180;7672;50.834;6.286;2023-07-29T12:15:39;98937.38;;;37.16
15144;BMP180;7672;50.834;6.286;2023-07-29T12:18:07;98936.31;;;37.03
15144;BMP180;7672;50.834;6.286;2023-07-29T12:20:34;98940.50;;;36.98
15144;BMP180;7672;50.834;6.286;2023-07-29T12:23:02;98943.34;;;36.88
15144;BMP180;7672;50.834;6.286;2023-07-29T12:25:30;98945.63;;;36.69
15144;BMP180;7672;50.834;6.286;2023-07-29T12:28:06;98952.38;;;36.41
15144;BMP180;7672;50.834;6.286;2023-07-29T12:30:34;98943.50;;;36.04
15144;BMP180;7672;50.834;6.286;2023-07-29T12:33:07;98952.13;;;35.66
15144;BMP180;7672;50.834;6.286;2023-07-29T12:35:38;98952.50;;;35.31
15144;BMP180;7672;50.834;6.286;2023-07-29T12:38:05;98957.25;;;34.96
15144;BMP180;7672;50.834;6.286;2023-07-29T12:40:32;98961.47;;;34.57
15144;BMP180;7672;50.834;6.286;2023-07-29T12:43:00;98961.31;;;34.18
15144;BMP180;7672;50.834;6.286;2023-07-29T12:45:27;98976.84;;;33.78
15144;BMP180;7672;50.834;6.286;2023-07-29T12:47:56;98967.84;;;33.38
15144;BMP180;7672;50.834;6.286;2023-07-29T12:50:23;98967.53;;;32.98
15144;BMP180;7672;50.834;6.286;2023-07-29T12:52:50;98986.28;;;32.59
15144;BMP180;7672;50.834;6.286;2023-07-29T12:55:17;98993.75;;;32.18
15144;BMP180;7672;50.834;6.286;2023-07-29T12:57:50;99001.75;;;31.71
15144;BMP180;7672;50.834;6.286;2023-07-29T13:00:17;99005.41;;;31.23
15144;BMP180;7672;50.834;6.286;2023-07-29T13:02:44;99010.53;;;30.75
15144;BMP180;7672;50.834;6.286;2023-07-29T13:05:12;99000.69;;;30.30
15144;BMP180;7672;50.834;6.286;2023-07-29T13:07:40;99013.22;;;29.86
15144;BMP180;7672;50.834;6.286;2023-07-29T13:10:12;99011.44;;;29.37
15144;BMP180;7672;50.834;6.286;2023-07-29T13:12:39;99011.13;;;28.88
15144;BMP180;7672;50.834;6.286;2023-07-29T13:15:07;98995.84;;;28.41
15144;BMP180;7672;50.834;6.286;2023-07-29T13:17:34;98999.16;;;28.00
15144;BMP180;7672;50.834;6.286;2023-07-29T13:20:02;99006.44;;;27.62
15144;BMP180;7672;50.834;6.286;2023-07-29T13:22:29;99005.28;;;27.32
15144;BMP180;7672;50.834;6.286;2023-07-29T13:24:56;99019.56;;;27.03
15144;BMP180;7672;50.834;6.286;2023-07-29T13:27:23;99013.66;;;26.78
15144;BMP180;7672;50.834;6.286;2023-07-29T13:29:52;99013.41;;;26.57
15144;BMP180;7672;50.834;6.286;2023-07-29T13:32:19;99027.75;;;26.38
15144;BMP180;7672;50.834;6.286;2023-07-29T13:34:46;99028.06;;;26.21
15144;BMP180;7672;50.834;6.286;2023-07-29T13:37:13;99028.31;;;26.06
15144;BMP180;7672;50.834;6.286;2023-07-29T13:39:40;99017.56;;;25.87
15144;BMP180;7672;50.834;6.286;2023-07-29T13:42:07;99004.72;;;25.73
15144;BMP180;7672;50.834;6.286;2023-07-29T13:44:34;99006.13;;;25.64
15144;BMP180;7672;50.834;6.286;2023-07-29T13:47:01;98999.59;;;25.59
15144;BMP180;7672;50.834;6.286;2023-07-29T13:49:28;99002.19;;;25.59
15144;BMP180;7672;50.834;6.286;2023-07-29T13:51:55;99000.31;;;25.61
15144;BMP180;7672;50.834;6.286;2023-07-29T13:54:22;98985.41;;;25.64
15144;BMP180;7672;50.834;6.286;2023-07-29T13:56:49;98984.16;;;25.70
15144;BMP180;7672;50.834;6.286;2023-07-29T13:59:16;98995.91;;;25.75
15144;BMP180;7672;50.834;6.286;2023-07-29T14:01:43;98995.81;;;25.77
15144;BMP180;7672;50.834;6.286;2023-07-29T14:04:10;99004.59;;;25.74
15144;BMP180;7672;50.834;6.286;2023-07-29T14:06:37;99014.41;;;25.69
15144;BMP180;7672;50.834;6.286;2023-07-29T14:09:12;99010.38;;;25.65
15144;BMP180;7672;50.834;6.286;2023-07-29T14:11:39;99019.06;;;25.64
15144;BMP180;7672;50.834;6.286;2023-07-29T14:14:07;99014.41;;;25.69
15144;BMP180;7672;50.834;6.286;2023-07-29T14:16:34;98995.41;;;25.70
15144;BMP180;7672;50.834;6.286;2023-07-29T14:19:02;98998.69;;;25.72
15144;BMP180;7672;50.834;6.286;2023-07-29T14:21:29;98995.28;;;25.72
15144;BMP180;7672;50.834;6.286;2023-07-29T14:23:56;99012.25;;;25.76
15144;BMP180;7672;50.834;6.286;2023-07-29T14:26:23;99011.53;;;25.86
15144;BMP180;7672;50.834;6.286;2023-07-29T14:28:50;99018.25;;;26.01
15144;BMP180;7672;50.834;6.286;2023-07-29T14:31:17;99014.38;;;26.19
15144;BMP180;7672;50.834;6.286;2023-07-29T14:33:44;99003.00;;;26.34
15144;BMP180;7672;50.834;6.286;2023-07-29T14:36:11;98996.25;;;26.44
15144;BMP180;7672;50.834;6.286;2023-07-29T14:38:38;98994.84;;;26.51
15144;BMP180;7672;50.834;6.286;2023-07-29T14:41:05;99011.88;;;26.55